createdAt,value
2023-03-18T00:03:05.722Z,29.10
2023-03-18T00:07:09.805Z,31.00
2023-03-18T00:11:13.852Z,30.60
2023-03-18T00:15:12.782Z,32.50
2023-03-18T00:19:16.789Z,34.10
2023-03-18T00:23:16.019Z,36.00
2023-03-18T00:27:20.131Z,36.70
2023-03-18T00:31:24.201Z,34.50
2023-03-18T00:35:20.870Z,35.10
2023-03-18T00:39:18.771Z,36.30
2023-03-18T00:43:22.842Z,32.10
2023-03-18T00:47:20.397Z,30.90
2023-03-18T00:51:24.391Z,34.20
2023-03-18T00:55:20.669Z,33.70
2023-03-18T00:59:25.387Z,30.70
2023-03-18T01:03:29.371Z,39.50
2023-03-18T01:07:33.516Z,34.20
2023-03-18T01:11:37.456Z,38.10
2023-03-18T01:15:42.265Z,37.00
2023-03-18T01:19:46.274Z,33.60
2023-03-18T01:23:50.390Z,32.40
2023-03-18T01:27:45.678Z,32.00
2023-03-18T01:31:49.552Z,33.60
2023-03-18T01:35:53.674Z,35.40
2023-03-18T01:39:57.710Z,33.20
2023-03-18T01:44:16.568Z,32.40
2023-03-18T01:48:13.347Z,32.40
2023-03-18T01:52:09.221Z,33.80
2023-03-18T01:56:13.283Z,34.60
2023-03-18T02:00:17.409Z,34.50
2023-03-18T02:03:22.366Z,33.30
2023-03-18T02:06:06.071Z,35.80
2023-03-18T02:08:49.817Z,32.90
2023-03-18T02:11:38.294Z,30.30
2023-03-18T02:14:26.924Z,33.90
2023-03-18T02:17:15.454Z,33.40
2023-03-18T02:20:02.155Z,38.10
2023-03-18T02:22:52.243Z,34.70
2023-03-18T02:25:57.444Z,33.90
2023-03-18T02:28:42.803Z,34.70
2023-03-18T02:31:27.357Z,32.80
2023-03-18T02:34:11.918Z,37.40
2023-03-18T02:36:55.678Z,34.90
2023-03-18T02:39:39.100Z,30.50
2023-03-18T02:42:30.633Z,33.60
2023-03-18T02:45:26.692Z,36.40
2023-03-18T02:48:36.764Z,33.00
2023-03-18T02:51:21.218Z,38.30
2023-03-18T02:54:10.251Z,39.00
2023-03-18T02:56:54.292Z,32.90
2023-03-18T02:59:37.511Z,36.20
2023-03-18T03:02:21.291Z,32.40
2023-03-18T03:05:04.810Z,35.00
2023-03-18T03:07:47.872Z,38.00
2023-03-18T03:10:31.643Z,33.30
2023-03-18T03:13:15.791Z,39.90
2023-03-18T03:15:58.979Z,31.10
2023-03-18T03:18:44.173Z,30.80
2023-03-18T03:21:27.906Z,32.80
2023-03-18T03:24:11.039Z,34.20
2023-03-18T03:26:55.804Z,30.40
2023-03-18T03:29:39.250Z,36.10
2023-03-18T03:32:23.303Z,32.10
2023-03-18T03:35:08.789Z,31.90
2023-03-18T03:37:52.625Z,33.40
2023-03-18T03:40:36.649Z,32.10
2023-03-18T03:43:20.561Z,32.70
2023-03-18T03:46:04.107Z,33.90
2023-03-18T03:48:48.223Z,29.60
2023-03-18T03:51:32.688Z,28.70
2023-03-18T03:54:16.907Z,30.10
2023-03-18T03:57:00.947Z,32.20
2023-03-18T03:59:44.266Z,34.50
2023-03-18T04:02:33.814Z,33.00
2023-03-18T04:05:19.560Z,29.10
2023-03-18T04:08:02.922Z,28.00
2023-03-18T04:10:50.736Z,30.60
2023-03-18T04:16:17.335Z,31.40
2023-03-18T04:19:00.350Z,30.50
2023-03-18T04:21:43.449Z,31.40
2023-03-18T04:24:26.452Z,31.20
2023-03-18T04:27:09.579Z,31.60
2023-03-18T04:29:52.802Z,38.60
2023-03-18T04:32:37.090Z,30.20
2023-03-18T04:35:21.288Z,31.70
2023-03-18T04:38:05.754Z,30.40
2023-03-18T04:40:48.994Z,31.20
2023-03-18T04:43:32.590Z,33.30
2023-03-18T04:46:15.980Z,29.60
2023-03-18T04:49:00.145Z,34.70
2023-03-18T04:51:43.878Z,38.60
2023-03-18T04:54:34.384Z,33.30
2023-03-18T04:57:19.859Z,31.20
2023-03-18T05:00:11.639Z,34.80
2023-03-18T05:02:55.404Z,33.60
2023-03-18T05:05:39.409Z,30.10
2023-03-18T05:08:23.713Z,30.50
2023-03-18T05:11:07.322Z,32.80
2023-03-18T05:13:52.297Z,34.60
2023-03-18T05:16:37.122Z,33.50
2023-03-18T05:19:20.819Z,32.80
2023-03-18T05:22:11.731Z,34.00
2023-03-18T05:24:55.938Z,26.50
2023-03-18T05:27:40.787Z,27.20
2023-03-18T05:30:32.184Z,26.30
2023-03-18T05:33:15.985Z,28.20
2023-03-18T05:36:05.188Z,28.90
2023-03-18T05:38:51.873Z,24.90
2023-03-18T05:41:35.139Z,28.80
2023-03-18T05:44:19.679Z,27.60
2023-03-18T05:47:04.939Z,29.60
2023-03-18T05:49:58.477Z,34.70
2023-03-18T05:52:43.157Z,29.30
2023-03-18T05:55:33.938Z,29.30
2023-03-18T05:58:17.045Z,33.40
2023-03-18T06:01:00.859Z,28.60
2023-03-18T06:03:43.998Z,28.70
2023-03-18T06:06:27.660Z,29.30
2023-03-18T06:09:12.722Z,25.90
2023-03-18T06:11:58.703Z,28.60
2023-03-18T06:14:41.657Z,29.40
2023-03-18T06:17:24.739Z,27.40
2023-03-18T06:20:09.601Z,27.60
2023-03-18T06:22:52.700Z,27.50
2023-03-18T06:25:36.661Z,33.00
2023-03-18T06:28:19.629Z,29.20
2023-03-18T06:31:04.176Z,33.90
2023-03-18T06:33:47.420Z,27.70
2023-03-18T06:36:31.995Z,31.60
2023-03-18T06:39:15.009Z,30.30
2023-03-18T06:41:59.449Z,27.20
2023-03-18T06:44:50.767Z,28.00
2023-03-18T06:47:40.110Z,25.40
2023-03-18T06:50:24.401Z,28.30
2023-03-18T06:53:08.271Z,31.40
2023-03-18T06:55:51.412Z,27.80
2023-03-18T06:58:36.801Z,30.20
2023-03-18T07:01:23.115Z,27.30
2023-03-18T07:04:07.165Z,30.40
2023-03-18T07:06:51.542Z,29.60
2023-03-18T07:09:34.593Z,34.20
2023-03-18T07:12:17.769Z,31.00
2023-03-18T07:15:01.360Z,34.20
2023-03-18T07:17:45.171Z,35.40
2023-03-18T07:20:29.916Z,27.40
2023-03-18T07:23:13.190Z,30.40
2023-03-18T07:25:56.221Z,33.70
2023-03-18T07:28:39.296Z,28.10
2023-03-18T07:31:23.174Z,24.20
2023-03-18T07:34:06.479Z,23.30
2023-03-18T07:36:49.977Z,24.20
2023-03-18T07:39:33.697Z,21.40
2023-03-18T07:42:16.718Z,21.60
2023-03-18T07:45:02.154Z,20.90
2023-03-18T07:47:47.228Z,20.90
2023-03-18T07:50:30.611Z,19.60
2023-03-18T07:53:16.591Z,19.20
2023-03-18T07:56:00.869Z,18.90
2023-03-18T07:58:43.878Z,22.50
2023-03-18T08:01:27.778Z,19.80
2023-03-18T08:04:10.855Z,18.50
2023-03-18T08:06:55.244Z,20.20
2023-03-18T08:09:38.574Z,19.00
2023-03-18T08:12:21.986Z,17.90
2023-03-18T08:15:05.505Z,18.70
2023-03-18T08:17:48.751Z,19.20
2023-03-18T08:20:31.989Z,17.20
2023-03-18T08:23:14.925Z,15.90
2023-03-18T08:25:57.979Z,18.00
2023-03-18T08:28:41.926Z,19.50
2023-03-18T08:31:24.940Z,18.80
2023-03-18T08:34:08.808Z,23.00
2023-03-18T08:36:52.258Z,17.90
2023-03-18T08:39:35.545Z,22.00
2023-03-18T08:42:19.297Z,16.40
2023-03-18T08:45:04.857Z,16.20
2023-03-18T08:47:47.910Z,14.20
2023-03-18T08:50:30.958Z,16.60
2023-03-18T08:53:14.128Z,18.80
2023-03-18T08:55:57.462Z,19.00
2023-03-18T08:58:40.795Z,16.30
2023-03-18T09:01:24.378Z,15.80
2023-03-18T09:04:07.435Z,18.60
2023-03-18T09:06:50.333Z,18.80
2023-03-18T09:09:43.207Z,16.60
2023-03-18T09:12:27.339Z,18.90
2023-03-18T09:15:15.172Z,18.20
2023-03-18T09:18:10.980Z,11.90
2023-03-18T09:20:57.479Z,17.90
2023-03-18T09:23:46.993Z,15.40
2023-03-18T09:26:29.956Z,18.00
2023-03-18T09:29:12.947Z,20.00
2023-03-18T09:31:56.355Z,15.70
2023-03-18T09:34:39.345Z,19.50
2023-03-18T09:37:22.936Z,14.80
2023-03-18T09:40:07.873Z,13.50
2023-03-18T09:43:17.526Z,18.20
2023-03-18T09:46:09.777Z,11.50
2023-03-18T09:49:21.304Z,20.50
2023-03-18T09:52:29.373Z,14.80
2023-03-18T09:55:16.164Z,15.60
2023-03-18T09:58:08.306Z,14.30
2023-03-18T10:01:00.554Z,14.60
2023-03-18T10:04:08.137Z,13.60
2023-03-18T10:07:00.152Z,15.50
2023-03-18T10:09:46.442Z,15.50
2023-03-18T10:13:01.369Z,16.70
2023-03-18T10:15:49.229Z,13.50
2023-03-18T10:18:38.257Z,18.00
2023-03-18T10:21:37.364Z,17.80
2023-03-18T10:24:55.427Z,21.50
2023-03-18T10:28:00.158Z,16.70
2023-03-18T10:30:50.858Z,18.10
2023-03-18T10:34:01.423Z,18.20
2023-03-18T10:37:04.195Z,17.60
2023-03-18T10:39:49.552Z,15.90
2023-03-18T10:42:33.397Z,16.30
2023-03-18T10:45:24.896Z,15.20
2023-03-18T10:48:28.981Z,16.80
2023-03-18T10:51:33.382Z,17.40
2023-03-18T10:54:46.202Z,17.30
2023-03-18T10:57:29.905Z,19.90
2023-03-18T11:00:33.267Z,17.90
2023-03-18T11:03:24.194Z,14.10
2023-03-18T11:06:16.450Z,16.20
2023-03-18T11:09:09.087Z,17.20
2023-03-18T11:11:57.925Z,19.90
2023-03-18T11:14:42.398Z,18.00
2023-03-18T11:17:31.971Z,17.30
2023-03-18T11:20:45.741Z,20.10
2023-03-18T11:23:46.340Z,21.10
2023-03-18T11:26:30.536Z,19.00
2023-03-18T11:29:18.741Z,16.60
2023-03-18T11:32:02.577Z,17.60
2023-03-18T11:34:56.454Z,16.90
2023-03-18T11:37:41.570Z,18.10
2023-03-18T11:40:28.330Z,17.20
2023-03-18T11:43:29.642Z,19.00
2023-03-18T11:46:13.650Z,20.90
2023-03-18T11:48:58.438Z,19.80
2023-03-18T11:52:15.222Z,17.70
2023-03-18T11:55:10.869Z,16.10
2023-03-18T11:58:31.750Z,18.70
2023-03-18T12:01:24.164Z,17.90
2023-03-18T12:04:42.653Z,19.20
2023-03-18T12:07:47.466Z,17.30
2023-03-18T12:10:36.940Z,22.70
2023-03-18T12:13:29.866Z,21.90
2023-03-18T12:16:12.830Z,18.90
2023-03-18T12:19:02.209Z,18.10
2023-03-18T12:22:06.673Z,18.20
2023-03-18T12:25:15.718Z,17.20
2023-03-18T12:28:01.678Z,16.80
2023-03-18T12:30:59.940Z,19.60
2023-03-18T12:34:01.629Z,16.60
2023-03-18T12:37:03.532Z,22.70
2023-03-18T12:40:25.756Z,16.10
2023-03-18T12:43:29.950Z,19.30
2023-03-18T12:46:36.130Z,18.10
2023-03-18T12:49:20.036Z,17.20
2023-03-18T12:52:09.581Z,18.40
2023-03-18T12:55:07.686Z,16.50
2023-03-18T12:58:19.733Z,19.50
2023-03-18T13:01:23.956Z,17.60
2023-03-18T13:04:14.220Z,14.90
2023-03-18T13:07:16.022Z,18.80
2023-03-18T13:10:21.910Z,21.50
2023-03-18T13:13:09.650Z,17.70
2023-03-18T13:15:54.083Z,17.90
2023-03-18T13:18:44.597Z,17.40
2023-03-18T13:21:33.989Z,18.00
2023-03-18T13:24:46.709Z,16.80
2023-03-18T13:27:59.428Z,15.20
2023-03-18T13:30:45.383Z,18.30
2023-03-18T13:34:01.074Z,15.70
2023-03-18T13:36:53.072Z,14.80
2023-03-18T13:39:39.190Z,17.80
2023-03-18T13:42:38.238Z,16.80
2023-03-18T13:45:31.637Z,16.20
2023-03-18T13:48:18.800Z,15.40
2023-03-18T13:51:25.407Z,18.60
2023-03-18T13:54:18.637Z,19.50
2023-03-18T13:57:29.594Z,20.90
2023-03-18T14:00:33.455Z,20.50
2023-03-18T14:03:31.728Z,16.40
2023-03-18T14:06:37.017Z,18.70
2023-03-18T14:09:25.924Z,19.10
2023-03-18T14:12:31.129Z,18.00
2023-03-18T14:15:40.175Z,20.00
2023-03-18T14:18:28.232Z,18.50
2023-03-18T14:21:29.724Z,15.60
2023-03-18T14:24:16.228Z,16.80
2023-03-18T14:27:05.064Z,14.90
2023-03-18T14:29:51.252Z,16.60
2023-03-18T14:32:36.980Z,14.90
2023-03-18T14:35:33.761Z,17.20
2023-03-18T14:38:22.345Z,18.00
2023-03-18T14:41:19.849Z,18.70
2023-03-18T14:44:17.507Z,15.30
2023-03-18T14:47:05.158Z,16.70
2023-03-18T14:49:54.996Z,14.60
2023-03-18T14:52:41.485Z,17.80
2023-03-18T14:55:31.366Z,12.50
2023-03-18T14:58:19.859Z,15.80
2023-03-18T15:01:11.079Z,14.80
2023-03-18T15:03:57.675Z,19.00
2023-03-18T15:06:41.966Z,17.40
2023-03-18T15:09:33.161Z,16.80
2023-03-18T15:12:18.502Z,17.80
2023-03-18T15:15:01.703Z,18.00
2023-03-18T15:17:49.312Z,16.10
2023-03-18T15:20:36.349Z,16.80
2023-03-18T15:23:27.146Z,21.10
2023-03-18T15:26:35.309Z,20.90
2023-03-18T15:29:33.228Z,18.00
2023-03-18T15:32:26.618Z,17.40
2023-03-18T15:35:18.257Z,21.80
2023-03-18T15:38:07.090Z,17.10
2023-03-18T15:40:52.744Z,17.30
2023-03-18T15:43:48.001Z,24.90
2023-03-18T15:46:32.462Z,22.20
2023-03-18T15:49:16.552Z,19.10
2023-03-18T15:52:02.120Z,17.50
2023-03-18T15:54:48.611Z,20.30
2023-03-18T15:57:40.237Z,20.20
2023-03-18T16:00:23.596Z,19.20
2023-03-18T16:03:18.878Z,25.20
2023-03-18T16:06:05.516Z,25.80
2023-03-18T16:08:50.103Z,26.90
2023-03-18T16:11:33.877Z,17.30
2023-03-18T16:14:23.957Z,21.60
2023-03-18T16:17:07.208Z,23.50
2023-03-18T16:19:57.803Z,27.70
2023-03-18T16:22:41.057Z,28.50
2023-03-18T16:25:24.994Z,24.80
2023-03-18T16:28:17.688Z,23.80
2023-03-18T16:31:01.131Z,28.00
2023-03-18T16:33:46.443Z,28.40
2023-03-18T16:36:35.162Z,32.00
2023-03-18T16:39:21.213Z,31.20
2023-03-18T16:42:06.292Z,39.70
2023-03-18T16:44:49.723Z,35.00
2023-03-18T16:47:33.643Z,43.70
2023-03-18T16:50:21.106Z,41.90
2023-03-18T16:53:22.549Z,37.60
2023-03-18T16:56:20.779Z,41.00
2023-03-18T16:59:11.473Z,43.20
2023-03-18T17:01:54.738Z,50.70
2023-03-18T17:04:38.164Z,40.20
2023-03-18T17:07:21.216Z,42.00
2023-03-18T17:10:04.566Z,40.80
2023-03-18T17:12:59.901Z,42.30
2023-03-18T17:15:44.959Z,36.60
2023-03-18T17:18:28.362Z,43.70
2023-03-18T17:21:12.628Z,39.40
2023-03-18T17:23:58.379Z,39.40
2023-03-18T17:26:41.439Z,47.30
2023-03-18T17:29:30.408Z,43.80
2023-03-18T17:32:16.797Z,49.70
2023-03-18T17:34:59.891Z,50.80
2023-03-18T17:37:43.733Z,53.30
2023-03-18T17:40:30.403Z,54.80
2023-03-18T17:43:27.959Z,68.40
2023-03-18T17:46:11.237Z,64.10
2023-03-18T17:48:55.230Z,61.60
2023-03-18T17:51:38.885Z,62.50
2023-03-18T17:54:25.377Z,67.90
2023-03-18T17:57:14.744Z,71.70
2023-03-18T18:00:00.598Z,73.80
2023-03-18T18:02:44.744Z,68.50
2023-03-18T18:05:28.153Z,67.60
2023-03-18T18:08:19.241Z,79.00
2023-03-18T18:11:28.021Z,74.70
2023-03-18T18:14:10.877Z,66.90
2023-03-18T18:16:56.273Z,74.90
2023-03-18T18:19:39.369Z,65.50
2023-03-18T18:22:26.601Z,72.60
2023-03-18T18:25:17.781Z,67.60
2023-03-18T18:28:01.010Z,72.60
2023-03-18T18:30:45.376Z,70.50
2023-03-18T18:33:28.688Z,63.70
2023-03-18T18:36:13.367Z,67.70
2023-03-18T18:38:56.765Z,73.40
2023-03-18T18:41:40.626Z,70.20
2023-03-18T18:44:23.816Z,71.50
2023-03-18T18:47:17.907Z,73.50
2023-03-18T18:50:00.925Z,74.50
2023-03-18T18:52:46.770Z,72.10
2023-03-18T18:55:30.543Z,78.40
2023-03-18T18:58:18.842Z,79.90
2023-03-18T19:01:02.213Z,73.10
2023-03-18T19:03:45.484Z,81.40
2023-03-18T19:06:31.778Z,80.50
2023-03-18T19:09:20.664Z,80.40
2023-03-18T19:12:04.826Z,82.90
2023-03-18T19:14:48.038Z,81.50
2023-03-18T19:17:31.195Z,85.00
2023-03-18T19:20:28.360Z,77.60
2023-03-18T19:23:33.340Z,88.60
2023-03-18T19:26:18.164Z,74.60
2023-03-18T19:29:01.507Z,79.80
2023-03-18T19:31:44.848Z,82.20
2023-03-18T19:34:31.118Z,94.90
2023-03-18T19:37:18.353Z,90.00
2023-03-18T19:40:13.407Z,96.50
2023-03-18T19:42:56.443Z,98.40
2023-03-18T19:45:41.168Z,100.70
2023-03-18T19:48:28.793Z,103.20
2023-03-18T19:51:15.989Z,104.30
2023-03-18T19:53:59.423Z,111.50
2023-03-18T19:56:42.346Z,114.80
2023-03-18T19:59:31.634Z,106.50
2023-03-18T20:02:25.999Z,118.30
2023-03-18T20:05:20.884Z,112.40
2023-03-18T20:08:04.326Z,117.20
2023-03-18T20:10:47.395Z,125.60
2023-03-18T20:13:30.309Z,121.50
2023-03-18T20:16:15.687Z,132.70
2023-03-18T20:18:58.691Z,133.90
2023-03-18T20:24:29.603Z,136.10
2023-03-18T20:27:12.488Z,139.60
2023-03-18T20:32:38.385Z,136.60
2023-03-18T20:35:21.574Z,144.20
2023-03-18T20:38:12.762Z,140.50
2023-03-18T20:40:56.673Z,133.90
2023-03-18T20:43:39.665Z,136.20
2023-03-18T20:46:25.554Z,132.50
2023-03-18T20:49:09.552Z,132.50
2023-03-18T20:51:52.747Z,130.20
2023-03-18T20:54:35.720Z,124.70
2023-03-18T20:57:19.334Z,117.00
2023-03-18T21:00:02.628Z,137.30
2023-03-18T21:02:47.470Z,132.10
2023-03-18T21:05:30.760Z,162.40
2023-03-18T21:08:14.017Z,138.40
2023-03-18T21:11:01.555Z,146.90
2023-03-18T21:13:45.384Z,142.40
2023-03-18T21:16:28.402Z,140.40
2023-03-18T21:19:12.673Z,143.50
2023-03-18T21:21:56.362Z,141.80
2023-03-18T21:24:39.480Z,128.60
2023-03-18T21:27:26.685Z,133.60
2023-03-18T21:30:10.836Z,138.90
2023-03-18T21:32:53.873Z,143.80
2023-03-18T21:35:37.264Z,131.20
2023-03-18T21:38:20.729Z,132.20
2023-03-18T21:41:03.848Z,128.60
2023-03-18T21:43:48.356Z,135.70
2023-03-18T21:46:32.186Z,147.30
2023-03-18T21:49:16.261Z,133.10
2023-03-18T21:51:59.468Z,129.70
2023-03-18T21:54:42.445Z,129.30
2023-03-18T22:00:16.327Z,153.10
2023-03-18T22:02:59.328Z,138.60
2023-03-18T22:05:42.947Z,148.40
2023-03-18T22:08:26.089Z,144.20
2023-03-18T22:11:17.797Z,141.20
2023-03-18T22:14:00.965Z,146.10
2023-03-18T22:16:43.905Z,151.90
2023-03-18T22:19:27.568Z,152.90
2023-03-18T22:22:15.974Z,157.10
2023-03-18T22:24:59.095Z,172.40
2023-03-18T22:27:42.243Z,181.30
2023-03-18T22:30:27.680Z,163.80
2023-03-18T22:33:40.405Z,158.70
2023-03-18T22:36:25.501Z,154.50
2023-03-18T22:39:09.126Z,153.80
2023-03-18T22:41:52.116Z,161.40
2023-03-18T22:44:35.046Z,149.20
2023-03-18T22:50:06.203Z,140.80
2023-03-18T22:52:51.706Z,144.90
2023-03-18T22:55:39.623Z,137.00
2023-03-18T22:58:26.150Z,148.50
2023-03-18T23:01:21.094Z,143.30
2023-03-18T23:04:05.009Z,153.80
2023-03-18T23:06:49.056Z,156.30
2023-03-18T23:09:41.555Z,141.70
2023-03-18T23:12:32.661Z,139.60
2023-03-18T23:15:21.784Z,137.10
2023-03-18T23:18:06.703Z,153.80
2023-03-18T23:20:51.626Z,141.10
2023-03-18T23:23:34.631Z,137.30
2023-03-18T23:26:18.036Z,128.90
2023-03-18T23:29:01.754Z,140.20
2023-03-18T23:31:44.754Z,124.60
2023-03-18T23:34:27.886Z,145.30
2023-03-18T23:37:11.928Z,156.00
2023-03-18T23:39:56.088Z,145.80
2023-03-18T23:42:39.379Z,146.50
2023-03-18T23:45:24.719Z,157.50
2023-03-18T23:48:07.989Z,151.10
2023-03-18T23:50:51.204Z,167.80
2023-03-18T23:53:34.173Z,158.60
2023-03-18T23:56:17.381Z,147.50
2023-03-18T23:59:00.969Z,155.60
